Atbasar, Kazakhstan
Current Conditions -  °F | °C
As of 5:30 PM on Thursday 23 Oct 2014 (Local Time) from UACK Reporting Station
Overcast Overcast  
Wind Chill: 34°   Ceiling: 900
Heat Index: 41°   Visibility: 6mi
Dew Point: 39°   Wind: 11mph
Humidity: 93%   Direction: 220°SW
Pressure: 29.62"   Gusts: NA
Location:  51.82°N, 68.35°E
Report Text: UACK 231130Z 22005MPS 9999 OVC009CB 05/04 Q1003 R20/290554NOSIG RMK QFE729/0972
Loading
Personal Weather Stations






























Interactive Weather Map New forecast layout! Learn more

10-Day Weather Forecast

Advertisements
Track Severe Weather on mobile